Weather History for KHLX - January, 2012

Change the Weather History Date:

Saturday, January 21, 2012

  Actual Average (KBLF) Record (KBLF)
Temperature  
Mean Temperature 44 °F 34 °F  
Max Temperature 50 °F 42 °F 60 °F (1999)
Min Temperature 39 °F 26 °F -21 °F (1985)
Degree Days  
Heating Degree Days 20 31  
Month to date heating degree days 651  
Since 1 July heating degree days 2416  
Cooling Degree Days 0 0  
Month to date cooling degree days 0  
Year to date cooling degree days 0  
Moisture  
Dew Point 43 °F    
Average Humidity 97    
Maximum Humidity 100    
Minimum Humidity 93    
Precipitation  
Precipitation 0.50 in 0.10 in 0.68 in (1982)
Month to date precipitation 1.98  
Year to date precipitation 1.98  
Snow  
Snow 0.00 in - - ()
Month to date snowfall  
Since 1 July snowfall  
Snow Depth -    
Sea Level Pressure  
Sea Level Pressure 29.94 in    
Wind  
Wind Speed 6 mph (WSW)    
Max Wind Speed 13 mph    
Max Gust Speed 18 mph    
Visibility 6 miles    
Events Fog , Rain    
T = Trace of Precipitation, MM = Missing Value Source: NWS Daily Summary

Daily Weather History Graph

Daily Weather History Graph

Search for Another Location

Airport or City:

Trip Planner

Search our weather history database for the weather conditions in past years. The results will help you decide how hot, cold, wet, or windy it might be!

Date:

Astronomy

Jan. 21, 2012 Rise Set
Actual Time 7:32 AM EST 5:36 PM EST
Civil Twilight 7:04 AM EST 6:04 PM EST
Nautical Twilight 6:33 AM EST 6:35 PM EST
Astronomical Twilight 6:02 AM EST 7:06 PM EST
Moon 6:01 AM EST (1/21) 4:11 PM EST (1/21)
Length of Visible Light 10h 59m
Length of Day
10h 03m
Waning Crescent, 3% of the Moon is Illuminated
Jan 21
Waning Crescent
Jan 23
New
Jan 30
First Quarter
Feb 7
Full
Feb 14
Last Quarter

Hourly Weather History & Observations

Time (EST) Temp. Windchill Dew Point Humidity Pressure Visibility Wind Dir Wind Speed Gust Speed Precip Events Conditions
12:15 AM 39.2 °F - 39.2 °F 100% 30.03 in 0.5 mi Calm Calm - N/A Fog Fog
12:35 AM 39.2 °F 35.0 °F 39.2 °F 100% 30.02 in 0.2 mi SSE 5.8 mph - 0.01 in Fog Fog
12:55 AM 39.2 °F 33.6 °F 39.2 °F 100% 30.02 in 0.2 mi South 8.1 mph - N/A Rain Light Rain
1:15 AM 39.2 °F 33.6 °F 37.4 °F 93% 30.00 in 0.2 mi South 8.1 mph - N/A   Overcast
1:35 AM 39.2 °F 33.6 °F 37.4 °F 93% 29.97 in 0.2 mi SSE 8.1 mph - N/A Rain Light Rain
1:55 AM 39.2 °F 34.2 °F 39.2 °F 100% 29.97 in 0.5 mi South 6.9 mph - N/A Fog Fog
2:15 AM 39.2 °F 33.0 °F 39.2 °F 100% 29.96 in 0.5 mi South 9.2 mph - N/A Fog Fog
2:35 AM 39.2 °F 33.6 °F 39.2 °F 100% 29.95 in 0.2 mi South 8.1 mph - N/A Fog Fog
2:55 AM 39.2 °F 33.0 °F 39.2 °F 100% 29.93 in 0.5 mi South 9.2 mph - N/A Fog Fog
3:15 AM 39.2 °F 34.2 °F 39.2 °F 100% 29.93 in 0.2 mi South 6.9 mph - N/A Fog Fog
3:35 AM 39.2 °F 32.0 °F 39.2 °F 100% 29.92 in 0.2 mi South 11.5 mph - N/A   Light Drizzle
3:55 AM 39.2 °F 33.0 °F 39.2 °F 100% 29.90 in 0.2 mi South 9.2 mph - N/A Fog Fog
4:15 AM 39.2 °F 32.5 °F 39.2 °F 100% 29.89 in 0.2 mi South 10.4 mph - N/A Fog Fog
4:35 AM 39.2 °F 32.5 °F 39.2 °F 100% 29.88 in 0.2 mi South 10.4 mph - 0.01 in Rain Rain
4:55 AM 39.2 °F 32.5 °F 39.2 °F 100% 29.88 in 0.5 mi South 10.4 mph - 0.05 in Rain Heavy Rain
5:15 AM 39.2 °F 31.6 °F 39.2 °F 100% 29.87 in 0.5 mi South 12.7 mph 18.4 mph 0.10 in Rain Rain
5:35 AM 39.2 °F 32.5 °F 39.2 °F 100% 29.86 in 1.0 mi South 10.4 mph - 0.10 in   Overcast
5:55 AM 39.2 °F 33.0 °F 39.2 °F 100% 29.86 in 2.0 mi South 9.2 mph - 0.01 in Rain Light Rain
6:15 AM 41.0 °F 35.2 °F 39.2 °F 93% 29.86 in 5.0 mi South 9.2 mph - 0.01 in Rain Light Rain
6:35 AM 41.0 °F 38.0 °F 41.0 °F 100% 29.87 in 3.0 mi SSW 4.6 mph - 0.06 in Rain Heavy Rain
7:15 AM 42.8 °F 38.0 °F 41.0 °F 93% 29.88 in 10.0 mi SW 8.1 mph - 0.03 in Rain Rain
7:35 AM 41.0 °F 36.4 °F 41.0 °F 100% 29.88 in 10.0 mi ESE 6.9 mph - 0.04 in Rain Rain
7:55 AM 41.0 °F 39.0 °F 41.0 °F 100% 29.88 in 2.0 mi ESE 3.5 mph - 0.04 in Rain Heavy Rain
8:15 AM 41.0 °F 37.1 °F 41.0 °F 100% 29.88 in 0.2 mi SSE 5.8 mph - 0.05 in Rain Rain
8:35 AM 41.0 °F 39.0 °F 41.0 °F 100% 29.89 in 7.0 mi SSW 3.5 mph - 0.06 in Rain Light Rain
8:55 AM 42.8 °F 40.1 °F 42.8 °F 100% 29.89 in 7.0 mi South 4.6 mph - 0.01 in Rain Light Rain
9:15 AM 42.8 °F - 42.8 °F 100% 29.90 in 2.0 mi Calm Calm - 0.07 in Rain Rain
9:35 AM 42.8 °F 41.1 °F 42.8 °F 100% 29.91 in 1.2 mi SW 3.5 mph - 0.09 in Rain Light Rain
9:55 AM 42.8 °F 41.1 °F 42.8 °F 100% 29.90 in 2.5 mi South 3.5 mph - 0.02 in Rain Rain
10:15 AM 42.8 °F 39.3 °F 42.8 °F 100% 29.92 in 2.0 mi SW 5.8 mph - 0.07 in Rain Rain
10:35 AM 44.6 °F 39.2 °F 44.6 °F 100% 29.88 in 1.2 mi South 10.4 mph - 0.10 in Rain Rain
10:55 AM 46.4 °F 42.9 °F 46.4 °F 100% 29.88 in 3.0 mi South 6.9 mph - N/A   Scattered Clouds
11:15 AM 46.4 °F 44.3 °F 46.4 °F 100% 29.89 in 7.0 mi SW 4.6 mph - N/A   Mostly Cloudy
11:35 AM 46.4 °F 44.3 °F 46.4 °F 100% 29.91 in 5.0 mi West 4.6 mph - N/A   Overcast
11:55 AM 46.4 °F - 46.4 °F 100% 29.89 in 2.5 mi Calm Calm - N/A   Light Drizzle
12:15 PM 46.4 °F - 46.4 °F 100% 29.89 in 10.0 mi Calm Calm - N/A   Overcast
12:35 PM 46.4 °F 45.2 °F 46.4 °F 100% 29.89 in 10.0 mi West 3.5 mph - N/A   Overcast
12:55 PM 48.2 °F - 48.2 °F 100% 29.89 in 4.0 mi NW 4.6 mph - N/A   Overcast
1:15 PM 48.2 °F - 48.2 °F 100% 29.88 in 7.0 mi WNW 4.6 mph - N/A   Overcast
1:35 PM 48.2 °F - 48.2 °F 100% 29.88 in 10.0 mi WNW 8.1 mph - N/A   Overcast
1:55 PM 50.0 °F - 48.2 °F 94% 29.88 in 10.0 mi NW 8.1 mph - N/A   Overcast
2:15 PM 50.0 °F - 50.0 °F 100% 29.88 in 10.0 mi WNW 6.9 mph - N/A   Mostly Cloudy
2:35 PM 50.0 °F - 50.0 °F 100% 29.89 in 10.0 mi WNW 11.5 mph - N/A   Mostly Cloudy
2:55 PM 50.0 °F - 48.2 °F 94% 29.91 in 10.0 mi NW 9.2 mph - N/A   Overcast
3:15 PM 50.0 °F - 48.2 °F 94% 29.90 in 10.0 mi NW 8.1 mph - N/A   Overcast
3:35 PM 50.0 °F - 48.2 °F 94% 29.92 in 10.0 mi NNW 5.8 mph - N/A   Overcast
3:55 PM 48.2 °F - 48.2 °F 100% 29.93 in 10.0 mi NNW 10.4 mph - N/A   Overcast
4:15 PM 48.2 °F - 46.4 °F 93% 29.95 in 10.0 mi NNW 12.7 mph - N/A   Overcast
4:35 PM 46.4 °F 41.5 °F 46.4 °F 100% 29.96 in 10.0 mi NNW 10.4 mph - N/A   Overcast
4:55 PM 46.4 °F 41.5 °F 44.6 °F 93% 29.97 in 10.0 mi NNW 10.4 mph - N/A   Overcast
5:15 PM 46.4 °F 42.4 °F 44.6 °F 93% 29.98 in 10.0 mi North 8.1 mph - N/A   Overcast
5:35 PM 46.4 °F 42.4 °F 44.6 °F 93% 30.00 in 10.0 mi North 8.1 mph - N/A   Overcast
5:55 PM 46.4 °F 41.9 °F 44.6 °F 93% 30.02 in 10.0 mi North 9.2 mph - N/A   Overcast
6:15 PM 44.6 °F 40.2 °F 42.8 °F 93% 30.04 in 10.0 mi NNW 8.1 mph - N/A   Overcast
6:35 PM 44.6 °F 41.4 °F 42.8 °F 93% 30.06 in 10.0 mi NNW 5.8 mph - N/A   Overcast
6:55 PM 44.6 °F 40.7 °F 42.8 °F 93% 30.07 in 10.0 mi North 6.9 mph - N/A   Overcast
7:15 PM 44.6 °F 42.2 °F 42.8 °F 93% 30.06 in 10.0 mi North 4.6 mph - N/A   Overcast
7:35 PM 44.6 °F 43.1 °F 42.8 °F 93% 30.06 in 10.0 mi North 3.5 mph - N/A   Mostly Cloudy
7:55 PM 42.8 °F 38.6 °F 41.0 °F 93% 30.06 in 10.0 mi North 6.9 mph - N/A   Scattered Clouds
8:15 PM 42.8 °F 41.1 °F 41.0 °F 93% 30.07 in 10.0 mi NNE 3.5 mph - N/A   Clear
8:35 PM 42.8 °F 41.1 °F 41.0 °F 93% 30.08 in 10.0 mi North 3.5 mph - N/A   Mostly Cloudy
8:55 PM 42.8 °F 41.1 °F 41.0 °F 93% 30.08 in 10.0 mi North 3.5 mph - N/A   Overcast
9:15 PM 42.8 °F 39.3 °F 41.0 °F 93% 30.09 in 10.0 mi North 5.8 mph - N/A   Overcast
9:35 PM 42.8 °F 38.6 °F 41.0 °F 93% 30.09 in 10.0 mi NE 6.9 mph - N/A   Overcast
10:15 PM 41.0 °F 39.0 °F 39.2 °F 93% 30.11 in 10.0 mi NNE 3.5 mph - N/A   Overcast
10:35 PM 41.0 °F 38.0 °F 39.2 °F 93% 30.13 in 10.0 mi North 4.6 mph - N/A   Overcast
10:55 PM 41.0 °F - 39.2 °F 93% 30.12 in 10.0 mi Calm Calm - N/A   Overcast
11:15 PM 41.0 °F 39.0 °F 39.2 °F 93% 30.12 in 10.0 mi ENE 3.5 mph - N/A   Overcast
11:35 PM 41.0 °F - 39.2 °F 93% 30.13 in 10.0 mi Calm Calm - N/A   Overcast
11:55 PM 41.0 °F - 39.2 °F 93% 30.13 in 10.0 mi Calm Calm - N/A   Overcast